createdAt,value
2022-08-05T00:02:22.777Z,19.35
2022-08-05T00:05:09.251Z,19.36
2022-08-05T00:08:34.592Z,19.24
2022-08-05T00:11:30.217Z,19.17
2022-08-05T00:14:18.053Z,19.12
2022-08-05T00:17:03.074Z,19.01
2022-08-05T00:20:01.923Z,18.91
2022-08-05T00:22:37.449Z,18.93
2022-08-05T00:25:13.457Z,18.89
2022-08-05T00:27:52.336Z,18.80
2022-08-05T00:30:37.591Z,18.73
2022-08-05T00:34:56.560Z,18.56
2022-08-05T00:37:11.240Z,18.59
2022-08-05T00:39:24.477Z,18.50
2022-08-05T00:42:06.467Z,18.46
2022-08-05T00:44:43.578Z,18.47
2022-08-05T00:47:21.639Z,18.48
2022-08-05T00:50:09.596Z,18.42
2022-08-05T00:52:41.800Z,18.36
2022-08-05T00:55:34.023Z,18.28
2022-08-05T00:58:29.597Z,18.20
2022-08-05T01:01:02.325Z,18.16
2022-08-05T01:03:52.851Z,18.16
2022-08-05T01:06:40.105Z,18.10
2022-08-05T01:09:20.609Z,18.05
2022-08-05T01:12:04.513Z,18.03
2022-08-05T01:15:35.404Z,17.86
2022-08-05T01:18:08.442Z,17.88
2022-08-05T01:21:52.806Z,17.87
2022-08-05T01:25:04.605Z,17.83
2022-08-05T01:28:11.421Z,17.77
2022-08-05T01:30:55.302Z,17.74
2022-08-05T01:33:51.997Z,17.70
2022-08-05T01:36:35.461Z,17.69
2022-08-05T01:39:45.550Z,17.60
2022-08-05T01:42:21.493Z,17.58
2022-08-05T01:44:59.860Z,17.55
2022-08-05T01:47:43.129Z,17.52
2022-08-05T01:50:36.516Z,17.48
2022-08-05T01:53:54.982Z,17.51
2022-08-05T01:58:12.153Z,17.43
2022-08-05T01:59:23.900Z,17.37
2022-08-05T02:02:13.935Z,17.32
2022-08-05T02:04:53.697Z,17.32
2022-08-05T02:07:30.378Z,17.28
2022-08-05T02:10:09.400Z,17.25
2022-08-05T02:12:46.873Z,17.21
2022-08-05T02:16:05.770Z,17.17
2022-08-05T02:18:51.493Z,17.13
2022-08-05T02:21:46.910Z,17.05
2022-08-05T02:24:38.638Z,17.03
2022-08-05T02:27:11.482Z,16.96
2022-08-05T02:29:59.216Z,16.97
2022-08-05T02:32:37.280Z,16.92
2022-08-05T02:35:27.942Z,16.88
2022-08-05T02:38:09.547Z,16.89
2022-08-05T02:40:52.829Z,16.84
2022-08-05T02:43:34.464Z,16.83
2022-08-05T02:46:29.031Z,16.82
2022-08-05T02:49:21.980Z,16.76
2022-08-05T02:52:04.800Z,16.66
2022-08-05T02:54:37.106Z,16.68
2022-08-05T02:58:20.087Z,16.64
2022-08-05T03:00:02.293Z,16.62
2022-08-05T03:02:42.918Z,16.53
2022-08-05T03:05:15.711Z,16.54
2022-08-05T03:08:04.441Z,16.32
2022-08-05T03:11:53.385Z,16.37
2022-08-05T03:13:52.036Z,16.65
2022-08-05T03:16:41.258Z,16.37
2022-08-05T03:19:20.308Z,16.60
2022-08-05T03:22:31.883Z,16.55
2022-08-05T03:25:34.016Z,16.50
2022-08-05T03:28:18.744Z,16.41
2022-08-05T03:30:48.771Z,16.45
2022-08-05T03:33:42.267Z,16.48
2022-08-05T03:36:35.609Z,16.52
2022-08-05T03:39:20.145Z,16.53
2022-08-05T03:42:07.141Z,16.52
2022-08-05T03:44:52.475Z,16.49
2022-08-05T03:47:25.341Z,16.53
2022-08-05T03:50:03.772Z,16.52
2022-08-05T03:54:59.343Z,16.50
2022-08-05T03:56:53.492Z,16.55
2022-08-05T03:59:46.888Z,16.57
2022-08-05T04:02:57.857Z,16.59
2022-08-05T04:05:42.160Z,16.61
2022-08-05T04:08:34.599Z,16.61
2022-08-05T04:11:16.476Z,16.64
2022-08-05T04:14:00.536Z,16.65
2022-08-05T04:16:37.010Z,16.66
2022-08-05T04:19:23.359Z,16.74
2022-08-05T04:22:10.359Z,16.77
2022-08-05T04:24:52.438Z,16.80
2022-08-05T04:27:41.653Z,16.85
2022-08-05T04:30:26.540Z,16.91
2022-08-05T04:33:04.600Z,17.04
2022-08-05T04:36:16.085Z,17.10
2022-08-05T04:38:56.507Z,17.18
2022-08-05T04:41:37.879Z,17.26
2022-08-05T04:44:08.948Z,17.43
2022-08-05T04:46:54.425Z,17.55
2022-08-05T04:49:38.482Z,17.72
2022-08-05T04:52:24.469Z,17.91
2022-08-05T04:55:14.569Z,18.13
2022-08-05T04:57:54.421Z,18.35
2022-08-05T05:00:27.466Z,18.59
2022-08-05T05:03:02.850Z,18.87
2022-08-05T05:06:39.617Z,19.16
2022-08-05T05:08:58.573Z,19.53
2022-08-05T05:11:54.101Z,19.91
2022-08-05T05:14:32.301Z,20.28
2022-08-05T05:17:07.461Z,20.68
2022-08-05T05:19:44.135Z,21.06
2022-08-05T05:22:26.407Z,21.42
2022-08-05T05:25:01.344Z,21.73
2022-08-05T05:28:11.186Z,22.24
2022-08-05T05:30:43.891Z,22.64
2022-08-05T05:33:27.981Z,23.02
2022-08-05T05:36:04.674Z,23.31
2022-08-05T05:38:48.259Z,23.70
2022-08-05T05:41:40.668Z,24.13
2022-08-05T05:44:36.338Z,24.49
2022-08-05T05:47:22.194Z,24.81
2022-08-05T05:49:56.891Z,25.21
2022-08-05T05:52:34.596Z,25.49
2022-08-05T05:55:16.456Z,25.87
2022-08-05T05:57:55.484Z,26.12
2022-08-05T06:00:45.802Z,26.01
2022-08-05T06:03:40.277Z,26.34
2022-08-05T06:06:34.791Z,26.70
2022-08-05T06:09:17.466Z,26.84
2022-08-05T06:11:59.071Z,26.79
2022-08-05T06:14:44.472Z,27.03
2022-08-05T06:17:24.528Z,27.34
2022-08-05T06:19:59.569Z,27.76
2022-08-05T06:22:37.198Z,27.44
2022-08-05T06:25:25.055Z,27.78
2022-08-05T06:28:22.133Z,27.98
2022-08-05T06:31:01.417Z,28.33
2022-08-05T06:34:07.157Z,28.24
2022-08-05T06:36:57.318Z,28.57
2022-08-05T06:39:43.113Z,28.92
2022-08-05T06:42:22.681Z,29.12
2022-08-05T06:45:05.574Z,28.94
2022-08-05T06:48:36.593Z,29.17
2022-08-05T06:50:37.436Z,29.50
2022-08-05T06:53:27.746Z,29.48
2022-08-05T06:56:05.877Z,29.83
2022-08-05T06:59:15.056Z,29.92
2022-08-05T07:01:47.669Z,29.88
2022-08-05T07:04:30.927Z,30.20
2022-08-05T07:07:07.869Z,30.30
2022-08-05T07:09:43.347Z,30.39
2022-08-05T07:12:37.694Z,29.96
2022-08-05T07:15:34.561Z,30.44
2022-08-05T07:18:34.727Z,30.73
2022-08-05T07:21:11.775Z,31.28
2022-08-05T07:23:58.633Z,31.52
2022-08-05T07:26:47.660Z,31.48
2022-08-05T07:30:22.849Z,31.83
2022-08-05T07:32:26.086Z,31.43
2022-08-05T07:36:01.876Z,31.36
2022-08-05T07:38:26.458Z,31.76
2022-08-05T07:42:13.711Z,31.92
2022-08-05T07:44:32.282Z,31.45
2022-08-05T07:47:10.223Z,31.63
2022-08-05T07:50:07.689Z,31.75
2022-08-05T07:52:42.362Z,31.48
2022-08-05T07:55:15.918Z,31.75
2022-08-05T07:58:55.059Z,32.13
2022-08-05T08:01:12.103Z,32.45
2022-08-05T08:03:55.911Z,32.67
2022-08-05T08:06:31.468Z,32.70
2022-08-05T08:09:01.494Z,32.50
2022-08-05T08:12:00.219Z,32.98
2022-08-05T08:14:48.592Z,32.76
2022-08-05T08:17:21.517Z,32.80
2022-08-05T08:20:21.697Z,32.47
2022-08-05T08:22:53.805Z,32.92
2022-08-05T08:25:59.863Z,33.26
2022-08-05T08:29:02.072Z,33.28
2022-08-05T08:31:38.665Z,33.40
2022-08-05T08:34:30.342Z,33.49
2022-08-05T08:37:19.373Z,33.27
2022-08-05T08:39:50.587Z,33.59
2022-08-05T08:42:46.810Z,33.31
2022-08-05T08:45:29.725Z,33.36
2022-08-05T08:48:22.239Z,33.45
2022-08-05T08:51:07.675Z,33.72
2022-08-05T08:53:59.728Z,33.89
2022-08-05T08:56:38.297Z,34.05
2022-08-05T08:59:33.583Z,34.09
2022-08-05T09:02:08.592Z,34.18
2022-08-05T09:04:58.543Z,34.13
2022-08-05T09:07:57.331Z,34.47
2022-08-05T09:10:34.142Z,34.45
2022-08-05T09:13:11.394Z,34.76
2022-08-05T09:15:52.609Z,34.47
2022-08-05T09:18:31.482Z,34.73
2022-08-05T09:21:01.537Z,34.80
2022-08-05T09:23:45.701Z,35.03
2022-08-05T09:26:22.620Z,34.96
2022-08-05T09:29:04.745Z,34.83
2022-08-05T09:32:39.941Z,34.91
2022-08-05T09:34:51.813Z,35.26
2022-08-05T09:38:17.146Z,35.43
2022-08-05T09:40:53.851Z,35.00
2022-08-05T09:43:45.984Z,35.01
2022-08-05T09:46:51.668Z,35.03
2022-08-05T09:49:54.628Z,35.22
2022-08-05T09:52:45.110Z,35.36
2022-08-05T09:55:56.650Z,35.00
2022-08-05T09:58:29.053Z,35.34
2022-08-05T10:01:32.077Z,34.97
2022-08-05T10:04:18.451Z,35.46
2022-08-05T10:07:20.213Z,35.30
2022-08-05T10:10:14.997Z,35.27
2022-08-05T10:12:52.930Z,34.97
2022-08-05T10:15:35.418Z,35.00
2022-08-05T10:18:27.605Z,35.05
2022-08-05T10:21:11.780Z,35.03
2022-08-05T10:24:10.665Z,35.43
2022-08-05T10:27:02.957Z,35.82
2022-08-05T10:30:06.359Z,35.84
2022-08-05T10:32:59.791Z,36.05
2022-08-05T10:35:59.922Z,35.89
2022-08-05T10:38:35.052Z,35.18
2022-08-05T10:41:15.481Z,35.13
2022-08-05T10:44:10.023Z,35.63
2022-08-05T10:46:55.973Z,35.93
2022-08-05T10:50:28.075Z,35.68
2022-08-05T10:54:23.381Z,35.82
2022-08-05T10:57:04.511Z,35.75
2022-08-05T11:00:02.161Z,35.58
2022-08-05T11:02:38.109Z,36.06
2022-08-05T11:05:18.287Z,35.93
2022-08-05T11:08:36.606Z,36.01
2022-08-05T11:11:53.344Z,36.28
2022-08-05T11:15:01.183Z,36.20
2022-08-05T11:17:59.229Z,36.64
2022-08-05T11:20:52.717Z,36.49
2022-08-05T11:24:03.166Z,36.71
2022-08-05T11:26:32.443Z,36.84
2022-08-05T11:29:12.828Z,36.79
2022-08-05T11:32:19.487Z,36.64
2022-08-05T11:34:59.952Z,36.59
2022-08-05T11:38:28.001Z,36.90
2022-08-05T11:41:56.199Z,37.25
2022-08-05T11:44:21.560Z,37.62
2022-08-05T11:47:15.124Z,37.40
2022-08-05T11:50:07.290Z,37.66
2022-08-05T11:52:49.470Z,37.86
2022-08-05T11:55:32.121Z,37.69
2022-08-05T11:58:14.499Z,37.61
2022-08-05T12:00:56.471Z,37.41
2022-08-05T12:03:31.468Z,36.85
2022-08-05T12:06:20.874Z,36.62
2022-08-05T12:09:09.725Z,37.29
2022-08-05T12:11:57.636Z,37.37
2022-08-05T12:14:47.170Z,37.46
2022-08-05T12:18:00.695Z,37.47
2022-08-05T12:20:39.507Z,37.41
2022-08-05T12:23:21.905Z,37.93
2022-08-05T12:26:05.157Z,37.74
2022-08-05T12:28:49.865Z,38.42
2022-08-05T12:31:42.439Z,38.34
2022-08-05T12:34:23.533Z,38.85
2022-08-05T12:37:03.285Z,38.91
2022-08-05T12:39:44.381Z,39.13
2022-08-05T12:42:36.702Z,39.20
2022-08-05T12:45:42.697Z,39.16
2022-08-05T12:48:27.332Z,38.88
2022-08-05T12:52:10.014Z,38.80
2022-08-05T12:54:26.613Z,38.85
2022-08-05T12:57:03.781Z,38.64
2022-08-05T13:02:00.844Z,38.81
2022-08-05T13:02:59.757Z,38.96
2022-08-05T13:05:47.431Z,39.01
2022-08-05T13:08:28.891Z,39.15
2022-08-05T13:11:25.322Z,39.00
2022-08-05T13:14:36.776Z,38.87
2022-08-05T13:17:42.280Z,39.07
2022-08-05T13:20:31.731Z,39.04
2022-08-05T13:23:07.396Z,39.37
2022-08-05T13:25:58.904Z,39.46
2022-08-05T13:28:59.526Z,38.42
2022-08-05T13:32:04.282Z,38.96
2022-08-05T13:34:49.186Z,37.46
2022-08-05T13:37:34.968Z,38.13
2022-08-05T13:40:45.843Z,38.48
2022-08-05T13:43:44.304Z,39.01
2022-08-05T13:46:44.320Z,39.18
2022-08-05T13:49:22.503Z,39.34
2022-08-05T13:51:55.484Z,39.26
2022-08-05T13:54:36.273Z,39.12
2022-08-05T13:57:10.665Z,39.00
2022-08-05T14:00:01.896Z,38.95
2022-08-05T14:02:54.996Z,39.37
2022-08-05T14:06:04.787Z,39.55
2022-08-05T14:08:32.989Z,39.62
2022-08-05T14:11:20.490Z,39.57
2022-08-05T14:13:54.764Z,39.75
2022-08-05T14:16:37.534Z,39.64
2022-08-05T14:19:17.812Z,39.84
2022-08-05T14:22:09.941Z,40.13
2022-08-05T14:24:46.658Z,40.22
2022-08-05T14:27:18.334Z,40.08
2022-08-05T14:29:57.562Z,39.79
2022-08-05T14:32:37.026Z,39.70
2022-08-05T14:35:22.863Z,39.69
2022-08-05T14:38:01.103Z,40.09
2022-08-05T14:40:36.667Z,40.31
2022-08-05T14:43:59.243Z,40.47
2022-08-05T14:46:27.993Z,40.27
2022-08-05T14:49:14.061Z,40.47
2022-08-05T14:51:49.749Z,39.97
2022-08-05T14:54:30.329Z,38.90
2022-08-05T14:57:13.946Z,39.41
2022-08-05T14:59:54.997Z,39.13
2022-08-05T15:02:45.012Z,39.18
2022-08-05T15:05:20.595Z,39.44
2022-08-05T15:08:06.238Z,39.45
2022-08-05T15:10:46.087Z,39.44
2022-08-05T15:13:28.609Z,39.26
2022-08-05T15:16:19.428Z,39.25
2022-08-05T15:19:03.293Z,39.18
2022-08-05T15:21:42.556Z,39.35
2022-08-05T15:24:21.493Z,39.66
2022-08-05T15:27:09.011Z,39.74
2022-08-05T15:29:42.189Z,39.61
2022-08-05T15:32:12.835Z,39.47
2022-08-05T15:34:53.418Z,39.23
2022-08-05T15:38:08.601Z,39.47
2022-08-05T15:41:02.822Z,39.48
2022-08-05T15:43:46.066Z,39.60
2022-08-05T15:46:29.757Z,39.28
2022-08-05T15:49:10.301Z,39.41
2022-08-05T15:52:10.173Z,39.53
2022-08-05T15:54:52.948Z,39.42
2022-08-05T15:57:37.099Z,39.24
2022-08-05T16:00:26.420Z,39.23
2022-08-05T16:03:25.896Z,39.48
2022-08-05T16:06:11.713Z,39.63
2022-08-05T16:08:44.561Z,40.28
2022-08-05T16:11:42.921Z,40.53
2022-08-05T16:14:31.434Z,40.83
2022-08-05T16:17:14.602Z,41.23
2022-08-05T16:20:03.000Z,42.08
2022-08-05T16:22:39.795Z,42.27
2022-08-05T16:25:34.012Z,42.86
2022-08-05T16:28:10.681Z,43.45
2022-08-05T16:30:52.504Z,44.03
2022-08-05T16:33:41.346Z,44.23
2022-08-05T16:36:12.033Z,44.46
2022-08-05T16:38:55.590Z,43.86
2022-08-05T16:42:14.277Z,43.82
2022-08-05T16:44:44.426Z,44.73
2022-08-05T16:47:48.236Z,45.26
2022-08-05T16:50:35.338Z,45.71
2022-08-05T16:53:12.362Z,45.89
2022-08-05T16:55:56.521Z,45.95
2022-08-05T16:58:32.159Z,46.01
2022-08-05T17:01:11.881Z,45.70
2022-08-05T17:03:54.994Z,45.23
2022-08-05T17:06:33.861Z,44.81
2022-08-05T17:09:11.705Z,44.54
2022-08-05T17:11:48.996Z,43.97
2022-08-05T17:14:38.395Z,43.22
2022-08-05T17:17:14.989Z,42.76
2022-08-05T17:19:59.545Z,42.18
2022-08-05T17:22:35.821Z,41.62
2022-08-05T17:25:09.719Z,41.08
2022-08-05T17:27:57.449Z,39.55
2022-08-05T17:30:50.715Z,37.69
2022-08-05T17:33:23.593Z,36.27
2022-08-05T17:36:07.486Z,35.23
2022-08-05T17:38:50.692Z,34.29
2022-08-05T17:42:19.843Z,33.65
2022-08-05T17:44:32.559Z,33.10
2022-08-05T17:47:11.975Z,32.54
2022-08-05T17:50:04.222Z,32.03
2022-08-05T17:52:52.718Z,31.65
2022-08-05T17:55:38.332Z,31.34
2022-08-05T17:58:22.087Z,30.93
2022-08-05T18:01:08.222Z,30.69
2022-08-05T18:03:56.016Z,30.45
2022-08-05T18:06:29.406Z,30.10
2022-08-05T18:09:14.638Z,29.75
2022-08-05T18:11:52.625Z,29.53
2022-08-05T18:14:36.523Z,28.77
2022-08-05T18:17:59.491Z,28.59
2022-08-05T18:20:16.514Z,28.13
2022-08-05T18:23:09.289Z,27.90
2022-08-05T18:25:57.471Z,27.77
2022-08-05T18:28:42.528Z,27.58
2022-08-05T18:31:21.694Z,27.37
2022-08-05T18:33:54.285Z,27.39
2022-08-05T18:36:43.632Z,27.28
2022-08-05T18:39:22.601Z,27.11
2022-08-05T18:42:21.355Z,27.08
2022-08-05T18:45:04.085Z,27.03
2022-08-05T18:47:38.176Z,26.94
2022-08-05T18:50:42.222Z,26.91
2022-08-05T18:53:22.138Z,26.77
2022-08-05T18:55:51.530Z,26.60
2022-08-05T18:58:29.194Z,26.46
2022-08-05T19:01:05.344Z,26.35
2022-08-05T19:03:55.685Z,26.28
2022-08-05T19:06:44.748Z,26.18
2022-08-05T19:09:26.139Z,25.99
2022-08-05T19:12:00.375Z,25.92
2022-08-05T19:15:00.685Z,25.76
2022-08-05T19:18:09.053Z,25.58
2022-08-05T19:20:49.503Z,25.41
2022-08-05T19:24:04.373Z,25.32
2022-08-05T19:26:21.341Z,25.23
2022-08-05T19:28:54.998Z,25.13
2022-08-05T19:31:45.005Z,25.10
2022-08-05T19:34:25.710Z,24.96
2022-08-05T19:37:00.858Z,24.79
2022-08-05T19:39:45.943Z,24.78
2022-08-05T19:42:36.498Z,24.70
2022-08-05T19:45:20.258Z,24.66
2022-08-05T19:48:04.325Z,24.60
2022-08-05T19:50:44.867Z,24.53
2022-08-05T19:54:03.685Z,24.44
2022-08-05T19:56:27.526Z,24.36
2022-08-05T19:59:50.998Z,24.25
2022-08-05T20:02:13.601Z,24.13
2022-08-05T20:04:51.015Z,24.06
2022-08-05T20:07:48.826Z,24.02
2022-08-05T20:10:36.274Z,23.93
2022-08-05T20:13:15.625Z,23.86
2022-08-05T20:15:57.641Z,23.78
2022-08-05T20:18:35.995Z,23.72
2022-08-05T20:21:23.328Z,23.67
2022-08-05T20:23:53.499Z,23.64
2022-08-05T20:26:30.896Z,23.56
2022-08-05T20:29:26.819Z,23.53
2022-08-05T20:32:11.526Z,23.49
2022-08-05T20:34:51.539Z,23.43
2022-08-05T20:38:04.546Z,23.39
2022-08-05T20:40:20.533Z,23.28
2022-08-05T20:42:53.834Z,23.18
2022-08-05T20:45:56.088Z,23.15
2022-08-05T20:48:26.585Z,23.09
2022-08-05T20:51:01.694Z,23.04
2022-08-05T20:53:56.442Z,23.00
2022-08-05T20:56:35.436Z,22.98
2022-08-05T20:59:18.908Z,22.94
2022-08-05T21:02:02.415Z,22.95
2022-08-05T21:04:43.283Z,22.97
2022-08-05T21:07:51.008Z,22.97
2022-08-05T21:10:23.205Z,22.95
2022-08-05T21:13:11.202Z,23.06
2022-08-05T21:15:55.504Z,23.05
2022-08-05T21:18:31.650Z,22.94
2022-08-05T21:21:15.710Z,22.82
2022-08-05T21:24:04.393Z,22.72
2022-08-05T21:26:34.675Z,22.67
2022-08-05T21:29:18.950Z,22.64
2022-08-05T21:31:59.245Z,22.51
2022-08-05T21:34:33.046Z,22.44
2022-08-05T21:37:10.912Z,22.31
2022-08-05T21:39:48.953Z,22.36
2022-08-05T21:42:30.895Z,22.32
2022-08-05T21:45:51.445Z,22.18
2022-08-05T21:48:31.818Z,22.04
2022-08-05T21:52:16.352Z,22.06
2022-08-05T21:54:08.554Z,21.95
2022-08-05T21:56:51.448Z,21.90
2022-08-05T21:59:54.149Z,21.84
2022-08-05T22:02:36.140Z,21.89
2022-08-05T22:05:10.169Z,21.92
2022-08-05T22:07:59.492Z,21.87
2022-08-05T22:10:51.781Z,21.87
2022-08-05T22:14:31.360Z,21.80
2022-08-05T22:16:40.484Z,21.75
2022-08-05T22:20:01.004Z,21.68
2022-08-05T22:22:26.657Z,21.58
2022-08-05T22:25:18.262Z,21.51
2022-08-05T22:28:08.609Z,21.33
2022-08-05T22:31:05.726Z,21.30
2022-08-05T22:33:57.387Z,21.25
2022-08-05T22:36:37.053Z,21.22
2022-08-05T22:39:22.871Z,21.14
2022-08-05T22:42:12.666Z,21.06
2022-08-05T22:44:56.556Z,21.05
2022-08-05T22:47:38.404Z,21.00
2022-08-05T22:50:26.578Z,20.95
2022-08-05T22:53:16.836Z,20.88
2022-08-05T22:56:00.834Z,20.85
2022-08-05T22:58:39.337Z,20.79
2022-08-05T23:01:23.901Z,20.71
2022-08-05T23:04:32.530Z,20.65
2022-08-05T23:07:01.755Z,20.59
2022-08-05T23:09:57.702Z,20.58
2022-08-05T23:12:40.966Z,20.44
2022-08-05T23:15:19.743Z,20.43
2022-08-05T23:18:03.236Z,20.41
2022-08-05T23:20:43.210Z,20.33
2022-08-05T23:23:23.781Z,20.28
2022-08-05T23:26:08.530Z,20.29
2022-08-05T23:28:45.423Z,20.26
2022-08-05T23:31:31.176Z,20.20
2022-08-05T23:34:03.933Z,20.12
2022-08-05T23:36:40.217Z,20.16
2022-08-05T23:39:32.598Z,20.17
2022-08-05T23:42:37.421Z,20.08
2022-08-05T23:45:14.375Z,20.02
2022-08-05T23:47:52.022Z,20.02
2022-08-05T23:50:40.448Z,19.97
2022-08-05T23:53:22.689Z,19.94
2022-08-05T23:55:59.007Z,19.99
2022-08-05T23:58:31.887Z,19.94
